createdAt,value
2022-09-03T00:01:04.406Z,99.90
2022-09-03T00:03:40.431Z,99.90
2022-09-03T00:06:16.017Z,99.90
2022-09-03T00:08:49.750Z,99.90
2022-09-03T00:11:23.817Z,99.90
2022-09-03T00:14:00.261Z,99.90
2022-09-03T00:16:31.725Z,99.90
2022-09-03T00:19:03.889Z,99.90
2022-09-03T00:21:41.423Z,99.90
2022-09-03T00:24:14.231Z,99.90
2022-09-03T00:26:49.064Z,99.90
2022-09-03T00:29:25.573Z,99.90
2022-09-03T00:31:59.146Z,99.90
2022-09-03T00:34:32.677Z,99.90
2022-09-03T00:37:01.314Z,99.90
2022-09-03T00:39:30.054Z,99.90
2022-09-03T00:42:15.155Z,99.90
2022-09-03T00:44:57.891Z,99.90
2022-09-03T00:47:33.119Z,99.90
2022-09-03T00:50:12.111Z,99.90
2022-09-03T00:52:49.206Z,99.90
2022-09-03T00:55:28.635Z,99.90
2022-09-03T00:58:13.678Z,99.90
2022-09-03T01:00:45.256Z,99.90
2022-09-03T01:03:19.062Z,99.90
2022-09-03T01:06:12.941Z,99.90
2022-09-03T01:09:02.803Z,99.90
2022-09-03T01:11:45.524Z,99.90
2022-09-03T01:14:27.306Z,99.90
2022-09-03T01:17:03.395Z,99.90
2022-09-03T01:20:02.852Z,99.90
2022-09-03T01:23:06.282Z,99.90
2022-09-03T01:25:47.135Z,99.90
2022-09-03T01:28:33.049Z,99.90
2022-09-03T01:31:21.364Z,99.90
2022-09-03T01:33:59.315Z,99.90
2022-09-03T01:36:35.193Z,99.90
2022-09-03T01:39:05.515Z,99.90
2022-09-03T01:42:06.646Z,99.90
2022-09-03T01:44:48.641Z,99.90
2022-09-03T01:47:33.258Z,99.90
2022-09-03T01:50:08.367Z,99.90
2022-09-03T01:52:45.195Z,99.90
2022-09-03T01:55:27.408Z,99.90
2022-09-03T01:57:59.789Z,99.90
2022-09-03T02:00:33.485Z,99.90
2022-09-03T02:03:07.220Z,99.90
2022-09-03T02:05:36.902Z,99.90
2022-09-03T02:08:08.722Z,99.90
2022-09-03T02:10:43.661Z,99.90
2022-09-03T02:13:16.900Z,99.90
2022-09-03T02:15:49.798Z,99.90
2022-09-03T02:18:21.981Z,99.90
2022-09-03T02:20:54.132Z,99.90
2022-09-03T02:23:24.735Z,99.90
2022-09-03T02:26:00.941Z,99.90
2022-09-03T02:28:30.836Z,99.90
2022-09-03T02:31:01.014Z,99.90
2022-09-03T02:33:29.780Z,99.90
2022-09-03T02:35:58.416Z,99.90
2022-09-03T02:38:28.477Z,99.90
2022-09-03T02:40:57.190Z,99.90
2022-09-03T02:43:33.351Z,99.90
2022-09-03T02:46:05.959Z,99.90
2022-09-03T02:48:35.135Z,99.90
2022-09-03T02:51:07.951Z,99.90
2022-09-03T02:53:43.474Z,99.90
2022-09-03T02:56:12.253Z,99.90
2022-09-03T02:58:41.408Z,99.90
2022-09-03T03:01:12.810Z,99.90
2022-09-03T03:03:52.594Z,99.90
2022-09-03T03:06:22.250Z,99.90
2022-09-03T03:08:51.467Z,99.90
2022-09-03T03:11:23.121Z,99.90
2022-09-03T03:13:51.678Z,99.90
2022-09-03T03:16:21.650Z,99.90
2022-09-03T03:18:50.985Z,99.90
2022-09-03T03:21:20.433Z,99.90
2022-09-03T03:23:49.035Z,99.90
2022-09-03T03:26:19.668Z,99.90
2022-09-03T03:28:50.002Z,99.90
2022-09-03T03:31:22.327Z,99.90
2022-09-03T03:33:53.490Z,99.90
2022-09-03T03:36:22.821Z,99.90
2022-09-03T03:38:51.352Z,99.90
2022-09-03T03:41:22.330Z,99.90
2022-09-03T03:43:55.084Z,99.90
2022-09-03T03:46:25.623Z,99.90
2022-09-03T03:48:54.622Z,99.90
2022-09-03T03:51:23.821Z,99.90
2022-09-03T03:53:56.909Z,99.90
2022-09-03T03:56:27.263Z,99.90
2022-09-03T03:58:56.699Z,99.90
2022-09-03T04:01:28.238Z,99.90
2022-09-03T04:03:57.718Z,99.90
2022-09-03T04:06:29.015Z,99.90
2022-09-03T04:08:57.986Z,99.90
2022-09-03T04:11:27.262Z,99.90
2022-09-03T04:13:56.165Z,99.90
2022-09-03T04:16:27.939Z,99.90
2022-09-03T04:18:57.379Z,99.90
2022-09-03T04:21:28.505Z,99.90
2022-09-03T04:23:59.234Z,99.90
2022-09-03T04:26:31.630Z,99.90
2022-09-03T04:29:01.416Z,99.90
2022-09-03T04:31:32.072Z,99.90
2022-09-03T04:34:00.952Z,99.90
2022-09-03T04:36:32.168Z,99.90
2022-09-03T04:39:01.985Z,99.90
2022-09-03T04:41:31.999Z,99.90
2022-09-03T04:44:01.369Z,99.90
2022-09-03T04:46:33.888Z,99.90
2022-09-03T04:49:03.940Z,99.90
2022-09-03T04:51:32.783Z,99.90
2022-09-03T04:54:03.295Z,99.90
2022-09-03T04:56:34.482Z,99.90
2022-09-03T04:59:06.054Z,99.90
2022-09-03T05:01:37.783Z,99.90
2022-09-03T05:04:07.876Z,99.90
2022-09-03T05:06:37.316Z,99.90
2022-09-03T05:09:06.824Z,99.90
2022-09-03T05:11:35.518Z,99.90
2022-09-03T05:14:06.113Z,99.90
2022-09-03T05:16:36.361Z,99.90
2022-09-03T05:19:06.201Z,99.90
2022-09-03T05:21:36.175Z,99.90
2022-09-03T05:24:05.698Z,99.90
2022-09-03T05:26:38.973Z,99.90
2022-09-03T05:29:12.013Z,99.90
2022-09-03T05:31:42.042Z,99.90
2022-09-03T05:34:14.036Z,99.90
2022-09-03T05:36:49.254Z,99.90
2022-09-03T05:39:17.823Z,99.90
2022-09-03T05:41:48.856Z,99.90
2022-09-03T05:44:17.401Z,99.90
2022-09-03T05:46:47.283Z,99.90
2022-09-03T05:49:16.008Z,99.90
2022-09-03T05:51:44.824Z,99.90
2022-09-03T05:54:13.409Z,99.90
2022-09-03T05:56:42.685Z,99.90
2022-09-03T05:59:14.927Z,99.90
2022-09-03T06:01:50.942Z,99.90
2022-09-03T06:04:23.474Z,99.90
2022-09-03T06:06:52.038Z,99.90
2022-09-03T06:09:23.336Z,99.90
2022-09-03T06:11:54.123Z,99.90
2022-09-03T06:14:23.933Z,99.90
2022-09-03T06:16:53.183Z,99.90
2022-09-03T06:19:23.366Z,99.90
2022-09-03T06:21:52.234Z,99.90
2022-09-03T06:24:26.441Z,99.90
2022-09-03T06:26:57.302Z,99.90
2022-09-03T06:29:26.351Z,99.90
2022-09-03T06:31:55.276Z,99.90
2022-09-03T06:34:28.738Z,99.90
2022-09-03T06:36:58.485Z,99.90
2022-09-03T06:39:27.320Z,99.90
2022-09-03T06:41:56.042Z,99.90
2022-09-03T06:44:35.731Z,99.90
2022-09-03T06:47:05.220Z,99.90
2022-09-03T06:49:35.146Z,99.90
2022-09-03T06:52:04.274Z,99.90
2022-09-03T06:54:32.823Z,99.90
2022-09-03T06:57:01.953Z,99.90
2022-09-03T06:59:30.535Z,99.90
2022-09-03T07:02:00.982Z,99.90
2022-09-03T07:04:29.681Z,99.90
2022-09-03T07:06:59.605Z,99.90
2022-09-03T07:09:28.584Z,99.90
2022-09-03T07:11:57.318Z,99.90
2022-09-03T07:14:25.922Z,99.90
2022-09-03T07:16:55.740Z,99.90
2022-09-03T07:19:24.219Z,99.90
2022-09-03T07:21:52.718Z,99.90
2022-09-03T07:24:23.125Z,99.90
2022-09-03T07:26:51.959Z,99.90
2022-09-03T07:29:21.770Z,99.90
2022-09-03T07:31:52.861Z,99.90
2022-09-03T07:34:25.618Z,99.90
2022-09-03T07:36:55.408Z,99.90
2022-09-03T07:39:25.287Z,99.90
2022-09-03T07:41:55.070Z,99.90
2022-09-03T07:44:24.806Z,99.90
2022-09-03T07:46:53.475Z,99.90
2022-09-03T07:49:23.213Z,99.90
2022-09-03T07:51:54.352Z,99.90
2022-09-03T07:54:27.458Z,99.90
2022-09-03T07:56:56.996Z,99.90
2022-09-03T07:59:26.166Z,99.90
2022-09-03T08:01:54.765Z,99.90
2022-09-03T08:04:23.312Z,99.90
2022-09-03T08:06:55.725Z,99.90
2022-09-03T08:09:25.897Z,99.90
2022-09-03T08:11:54.451Z,99.90
2022-09-03T08:14:22.976Z,99.90
2022-09-03T08:16:51.592Z,99.90
2022-09-03T08:19:20.352Z,99.90
2022-09-03T08:21:48.940Z,99.90
2022-09-03T08:24:21.155Z,99.90
2022-09-03T08:26:52.351Z,99.90
2022-09-03T08:29:22.338Z,99.90
2022-09-03T08:31:51.322Z,99.90
2022-09-03T08:34:19.931Z,99.90
2022-09-03T08:36:48.897Z,99.90
2022-09-03T08:39:17.755Z,99.90
2022-09-03T08:42:01.846Z,99.90
2022-09-03T08:44:32.690Z,99.90
2022-09-03T08:47:03.934Z,99.90
2022-09-03T08:49:39.943Z,99.90
2022-09-03T08:52:19.798Z,99.90
2022-09-03T08:54:50.310Z,99.90
2022-09-03T08:57:22.170Z,99.90
2022-09-03T08:59:55.774Z,99.90
2022-09-03T09:02:35.529Z,99.90
2022-09-03T09:05:14.377Z,99.90
2022-09-03T09:07:50.631Z,99.90
2022-09-03T09:10:27.529Z,99.90
2022-09-03T09:13:10.898Z,99.90
2022-09-03T09:15:48.316Z,99.90
2022-09-03T09:18:24.929Z,99.90
2022-09-03T09:21:00.682Z,99.90
2022-09-03T09:23:33.690Z,99.90
2022-09-03T09:26:08.090Z,99.90
2022-09-03T09:28:40.604Z,99.90
2022-09-03T09:31:15.621Z,99.90
2022-09-03T09:33:44.762Z,99.90
2022-09-03T09:36:16.651Z,99.90
2022-09-03T09:38:46.835Z,99.90
2022-09-03T09:41:16.843Z,99.90
2022-09-03T09:43:48.069Z,99.90
2022-09-03T09:46:21.203Z,99.90
2022-09-03T09:48:52.951Z,99.90
2022-09-03T09:51:23.345Z,99.90
2022-09-03T09:54:03.497Z,99.90
2022-09-03T09:56:32.665Z,99.90
2022-09-03T09:59:11.958Z,99.90
2022-09-03T10:01:41.754Z,99.90
2022-09-03T10:04:12.382Z,99.90
2022-09-03T10:06:57.341Z,99.90
2022-09-03T10:09:31.442Z,99.90
2022-09-03T10:12:15.853Z,99.90
2022-09-03T10:14:51.412Z,99.90
2022-09-03T10:17:36.731Z,99.90
2022-09-03T10:20:31.354Z,99.90
2022-09-03T10:23:22.838Z,99.90
2022-09-03T10:26:07.528Z,99.90
2022-09-03T10:28:41.476Z,99.90
2022-09-03T10:31:47.613Z,99.90
2022-09-03T10:34:21.941Z,99.90
2022-09-03T10:37:00.368Z,99.90
2022-09-03T10:39:43.636Z,99.90
2022-09-03T10:42:31.356Z,99.90
2022-09-03T10:45:08.203Z,99.90
2022-09-03T10:48:07.688Z,99.90
2022-09-03T10:50:48.655Z,99.90
2022-09-03T10:53:51.837Z,99.90
2022-09-03T10:56:31.284Z,99.90
2022-09-03T10:59:12.011Z,99.90
2022-09-03T11:01:49.454Z,99.90
2022-09-03T11:04:31.677Z,99.90
2022-09-03T11:07:09.877Z,99.90
2022-09-03T11:09:43.174Z,99.90
2022-09-03T11:12:18.180Z,99.90
2022-09-03T11:14:51.883Z,99.90
2022-09-03T11:17:25.523Z,99.90
2022-09-03T11:20:02.179Z,99.90
2022-09-03T11:22:32.650Z,99.90
2022-09-03T11:25:03.809Z,99.90
2022-09-03T11:27:51.409Z,99.90
2022-09-03T11:30:26.273Z,99.90
2022-09-03T11:33:00.039Z,99.90
2022-09-03T11:35:41.930Z,99.90
2022-09-03T11:38:24.872Z,99.90
2022-09-03T11:41:01.407Z,99.90
2022-09-03T11:43:32.055Z,99.90
2022-09-03T11:46:11.948Z,99.90
2022-09-03T11:48:44.768Z,99.90
2022-09-03T11:51:32.280Z,99.90
2022-09-03T11:54:03.843Z,99.90
2022-09-03T11:56:33.722Z,99.90
2022-09-03T11:59:07.302Z,99.90
2022-09-03T12:01:46.320Z,99.90
2022-09-03T12:04:18.271Z,99.90
2022-09-03T12:07:22.058Z,99.90
2022-09-03T12:10:13.312Z,99.90
2022-09-03T12:12:51.291Z,99.90
2022-09-03T12:15:31.545Z,99.90
2022-09-03T12:18:22.836Z,99.90
2022-09-03T12:21:04.095Z,99.90
2022-09-03T12:23:36.417Z,99.90
2022-09-03T12:26:07.770Z,99.00
2022-09-03T12:28:41.525Z,98.20
2022-09-03T12:31:22.993Z,99.10
2022-09-03T12:33:54.175Z,99.50
2022-09-03T12:36:23.628Z,99.50
2022-09-03T12:39:11.370Z,99.60
2022-09-03T12:41:41.002Z,99.70
2022-09-03T12:44:13.796Z,98.90
2022-09-03T12:46:42.575Z,99.40
2022-09-03T12:49:32.151Z,99.40
2022-09-03T12:52:06.403Z,99.30
2022-09-03T12:54:40.603Z,99.00
2022-09-03T12:57:10.788Z,98.60
2022-09-03T12:59:40.587Z,98.80
2022-09-03T13:02:20.388Z,98.40
2022-09-03T13:04:49.796Z,98.50
2022-09-03T13:07:27.263Z,98.90
2022-09-03T13:10:04.841Z,99.10
2022-09-03T13:12:36.428Z,98.60
2022-09-03T13:15:10.950Z,98.80
2022-09-03T13:18:12.709Z,98.70
2022-09-03T13:20:52.275Z,98.90
2022-09-03T13:23:50.979Z,98.20
2022-09-03T13:26:32.376Z,98.10
2022-09-03T13:29:28.150Z,98.60
2022-09-03T13:32:06.292Z,98.70
2022-09-03T13:34:38.715Z,97.40
2022-09-03T13:37:19.980Z,96.30
2022-09-03T13:39:53.673Z,97.50
2022-09-03T13:42:28.640Z,99.00
2022-09-03T13:45:06.846Z,98.40
2022-09-03T13:48:04.446Z,96.90
2022-09-03T13:50:40.975Z,97.00
2022-09-03T13:53:20.863Z,97.30
2022-09-03T13:55:56.163Z,96.40
2022-09-03T13:58:32.123Z,95.60
2022-09-03T14:01:13.639Z,97.40
2022-09-03T14:03:49.114Z,97.10
2022-09-03T14:06:27.285Z,96.70
2022-09-03T14:09:07.932Z,95.50
2022-09-03T14:11:48.182Z,94.90
2022-09-03T14:14:32.886Z,94.90
2022-09-03T14:17:07.819Z,94.30
2022-09-03T14:19:44.847Z,95.10
2022-09-03T14:22:19.509Z,96.40
2022-09-03T14:24:53.346Z,95.60
2022-09-03T14:27:27.601Z,96.10
2022-09-03T14:30:03.071Z,96.00
2022-09-03T14:32:42.574Z,97.90
2022-09-03T14:35:37.655Z,98.20
2022-09-03T14:38:44.302Z,97.10
2022-09-03T14:41:43.504Z,96.80
2022-09-03T14:44:36.193Z,97.20
2022-09-03T14:47:20.797Z,96.70
2022-09-03T14:50:22.570Z,97.20
2022-09-03T14:53:26.737Z,97.50
2022-09-03T14:56:10.777Z,99.30
2022-09-03T14:58:52.543Z,99.80
2022-09-03T15:01:39.086Z,99.90
2022-09-03T15:04:47.350Z,99.90
2022-09-03T15:07:27.873Z,99.90
2022-09-03T15:10:06.256Z,99.90
2022-09-03T15:12:39.053Z,99.90
2022-09-03T15:15:13.850Z,99.90
2022-09-03T15:17:53.363Z,99.90
2022-09-03T15:20:33.348Z,99.90
2022-09-03T15:23:20.446Z,99.90
2022-09-03T15:26:15.818Z,99.90
2022-09-03T15:28:59.843Z,99.90
2022-09-03T15:31:39.201Z,99.90
2022-09-03T15:34:20.393Z,99.90
2022-09-03T15:36:53.881Z,99.90
2022-09-03T15:39:26.142Z,99.90
2022-09-03T15:41:58.432Z,99.90
2022-09-03T15:44:32.381Z,99.90
2022-09-03T15:47:05.354Z,99.90
2022-09-03T15:49:54.404Z,99.90
2022-09-03T15:52:33.778Z,99.90
2022-09-03T15:55:10.396Z,99.90
2022-09-03T15:57:46.859Z,99.90
2022-09-03T16:00:21.169Z,99.90
2022-09-03T16:02:57.998Z,99.90
2022-09-03T16:05:40.326Z,99.90
2022-09-03T16:08:23.668Z,99.90
2022-09-03T16:11:07.052Z,99.90
2022-09-03T16:13:46.761Z,99.90
2022-09-03T16:16:22.550Z,99.90
2022-09-03T16:19:00.490Z,99.90
2022-09-03T16:21:36.611Z,99.90
2022-09-03T16:24:14.879Z,99.90
2022-09-03T16:26:52.691Z,99.90
2022-09-03T16:29:27.859Z,99.90
2022-09-03T16:32:23.518Z,99.90
2022-09-03T16:35:05.231Z,99.90
2022-09-03T16:37:42.730Z,99.90
2022-09-03T16:40:24.610Z,99.90
2022-09-03T16:43:18.038Z,99.90
2022-09-03T16:46:03.254Z,99.90
2022-09-03T16:48:39.399Z,99.90
2022-09-03T16:51:14.368Z,99.90
2022-09-03T16:54:07.602Z,99.90
2022-09-03T16:56:51.600Z,99.90
2022-09-03T16:59:33.273Z,99.90
2022-09-03T17:02:39.282Z,99.90
2022-09-03T17:05:21.892Z,99.90
2022-09-03T17:08:06.267Z,99.90
2022-09-03T17:10:44.407Z,99.90
2022-09-03T17:13:43.968Z,99.90
2022-09-03T17:16:24.328Z,99.90
2022-09-03T17:19:00.328Z,99.90
2022-09-03T17:21:46.026Z,99.90
2022-09-03T17:24:36.349Z,99.90
2022-09-03T17:27:21.154Z,99.90
2022-09-03T17:30:06.578Z,99.90
2022-09-03T17:33:00.392Z,99.90
2022-09-03T17:35:38.433Z,99.90
2022-09-03T17:38:23.335Z,99.90
2022-09-03T17:41:07.481Z,99.90
2022-09-03T17:43:48.232Z,99.90
2022-09-03T17:46:32.561Z,99.90
2022-09-03T17:49:02.831Z,99.90
2022-09-03T17:51:42.655Z,99.90
2022-09-03T17:54:19.377Z,99.90
2022-09-03T17:56:55.944Z,99.90
2022-09-03T17:59:36.367Z,99.90
2022-09-03T18:02:18.150Z,99.90
2022-09-03T18:04:50.451Z,99.90
2022-09-03T18:07:25.554Z,99.90
2022-09-03T18:10:08.178Z,99.90
2022-09-03T18:12:52.701Z,99.90
2022-09-03T18:15:37.515Z,99.90
2022-09-03T18:18:12.904Z,99.90
2022-09-03T18:21:23.256Z,99.90
2022-09-03T18:24:17.327Z,99.90
2022-09-03T18:27:11.556Z,99.90
2022-09-03T18:30:04.597Z,99.90
2022-09-03T18:32:50.331Z,99.90
2022-09-03T18:35:38.544Z,99.90
2022-09-03T18:38:25.069Z,99.90
2022-09-03T18:41:18.178Z,99.90
2022-09-03T18:44:12.884Z,99.90
2022-09-03T18:50:27.495Z,99.90
2022-09-03T18:53:19.668Z,99.90
2022-09-03T18:56:18.686Z,99.90
2022-09-03T18:59:16.928Z,99.90
2022-09-03T19:02:03.199Z,99.90
2022-09-03T19:05:03.714Z,99.90
2022-09-03T19:08:02.065Z,99.90
2022-09-03T19:10:59.174Z,99.90
2022-09-03T19:13:51.522Z,99.90
2022-09-03T19:16:48.968Z,99.90
2022-09-03T19:19:58.071Z,99.90
2022-09-03T19:22:49.032Z,99.90
2022-09-03T19:25:35.223Z,99.90
2022-09-03T19:28:32.240Z,99.90
2022-09-03T19:31:34.218Z,99.90
2022-09-03T19:34:28.438Z,99.90
2022-09-03T19:37:22.761Z,99.90
2022-09-03T19:40:28.752Z,99.90
2022-09-03T19:43:23.748Z,99.90
2022-09-03T19:46:19.014Z,99.90
2022-09-03T19:49:17.249Z,99.90
2022-09-03T19:52:13.829Z,99.90
2022-09-03T19:55:00.749Z,99.90
2022-09-03T19:57:49.631Z,99.90
2022-09-03T20:00:36.036Z,99.90
2022-09-03T20:03:24.873Z,99.90
2022-09-03T20:06:11.592Z,99.90
2022-09-03T20:08:57.646Z,99.90
2022-09-03T20:11:29.698Z,99.90
2022-09-03T20:14:17.288Z,99.90
2022-09-03T20:17:09.903Z,99.90
2022-09-03T20:19:52.499Z,99.90
2022-09-03T20:22:31.945Z,99.90
2022-09-03T20:25:17.305Z,99.90
2022-09-03T20:27:56.909Z,99.90
2022-09-03T20:30:32.123Z,99.90
2022-09-03T20:33:22.719Z,99.90
2022-09-03T20:36:02.996Z,99.90
2022-09-03T20:38:56.413Z,99.90
2022-09-03T20:41:30.233Z,99.90
2022-09-03T20:44:20.763Z,99.90
2022-09-03T20:47:05.590Z,99.90
2022-09-03T20:49:41.459Z,99.90
2022-09-03T20:52:18.658Z,99.90
2022-09-03T20:54:58.195Z,99.90
2022-09-03T20:57:38.102Z,99.90
2022-09-03T21:00:12.790Z,99.90
2022-09-03T21:03:16.082Z,99.90
2022-09-03T21:06:03.788Z,99.90
2022-09-03T21:08:57.261Z,99.90
2022-09-03T21:11:39.009Z,99.90
2022-09-03T21:14:19.445Z,99.90
2022-09-03T21:17:00.259Z,99.90
2022-09-03T21:19:43.394Z,99.90
2022-09-03T21:22:23.088Z,99.90
2022-09-03T21:24:57.028Z,99.90
2022-09-03T21:27:29.576Z,99.90
2022-09-03T21:30:02.905Z,99.90
2022-09-03T21:32:38.987Z,99.90
2022-09-03T21:35:17.392Z,99.90
2022-09-03T21:37:54.702Z,99.90
2022-09-03T21:40:31.346Z,99.90
2022-09-03T21:43:11.104Z,99.90
2022-09-03T21:45:46.248Z,99.90
2022-09-03T21:48:19.591Z,99.90
2022-09-03T21:50:52.402Z,99.90
2022-09-03T21:53:27.675Z,99.90
2022-09-03T21:56:19.758Z,99.90
2022-09-03T21:59:07.005Z,99.90
2022-09-03T22:01:47.082Z,99.90
2022-09-03T22:04:15.700Z,99.90
2022-09-03T22:06:53.033Z,99.90
2022-09-03T22:09:28.289Z,99.90
2022-09-03T22:12:06.863Z,99.90
2022-09-03T22:14:43.536Z,99.90
2022-09-03T22:17:19.351Z,99.90
2022-09-03T22:19:47.986Z,99.90
2022-09-03T22:22:22.795Z,99.90
2022-09-03T22:24:58.943Z,99.90
2022-09-03T22:27:36.723Z,99.90
2022-09-03T22:30:08.556Z,99.90
2022-09-03T22:32:52.849Z,99.90
2022-09-03T22:35:47.828Z,99.90
2022-09-03T22:38:49.840Z,99.90
2022-09-03T22:41:41.893Z,99.90
2022-09-03T22:44:23.403Z,99.90
2022-09-03T22:47:02.903Z,99.90
2022-09-03T22:49:39.361Z,99.90
2022-09-03T22:52:20.103Z,99.90
2022-09-03T22:55:02.498Z,99.90
2022-09-03T22:57:38.177Z,99.90
2022-09-03T23:00:10.515Z,99.90
2022-09-03T23:02:41.874Z,99.90
2022-09-03T23:05:16.956Z,99.90
2022-09-03T23:07:54.113Z,99.90
2022-09-03T23:10:27.844Z,99.90
2022-09-03T23:13:07.807Z,99.90
2022-09-03T23:15:41.703Z,99.90
2022-09-03T23:18:17.904Z,99.90
2022-09-03T23:20:55.397Z,99.90
2022-09-03T23:23:31.310Z,99.90
2022-09-03T23:26:13.688Z,99.90
2022-09-03T23:28:46.640Z,99.90
2022-09-03T23:31:21.993Z,99.90
2022-09-03T23:33:52.629Z,99.90
2022-09-03T23:36:57.923Z,99.90
2022-09-03T23:39:40.409Z,99.90
2022-09-03T23:42:19.488Z,99.90
2022-09-03T23:45:04.387Z,99.90
2022-09-03T23:47:46.043Z,99.90
2022-09-03T23:50:28.914Z,99.90
2022-09-03T23:53:16.426Z,99.90
2022-09-03T23:55:56.139Z,99.90
2022-09-03T23:58:37.119Z,99.90
